Time;durP1;ratioP1;P1;durP2;ratioP2;P2;SDS_P1;SDS_P2;PMS_P1;PMS_P2;Temp;Humidity;BMP_temperature;BMP_pressure;BME280_temperature;BME280_humidity;BME280_pressure;Samples;Min_cycle;Max_cycle;Signal;HPM_P1;HPM_P2
2021/06/07 00:00:19;;;;;;;;;;;;;;;24.42;30.02;101680.81;6084930;23;96518;-88
2021/06/07 00:02:45;;;;;;;;;;;;;;;24.64;29.76;101678.16;6089624;23;95838;-88
2021/06/07 00:05:11;;;;;;;;;;;;;;;24.38;29.66;101677.53;6089322;23;96458;-87
2021/06/07 00:07:37;;;;;;;;;;;;;;;24.22;30.41;101676.97;6091724;23;99837;-88
2021/06/07 00:10:07;;;;;;;;;;;;;;;24.05;30.03;101678.28;6091773;23;99608;-87
2021/06/07 00:12:34;;;;;;;;;;;;;;;24.08;29.98;101683.47;6092163;23;96571;-87
2021/06/07 00:15:00;;;;;;;;;;;;;;;24.03;30.12;101676.66;6091533;23;96359;-88
2021/06/07 00:17:26;;;;;;;;;;;;;;;23.49;30.37;101676.34;6086466;23;99632;-87
2021/06/07 00:19:53;;;;;;;;;;;;;;;23.61;30.19;101678.13;6087600;23;98385;-86
2021/06/07 00:22:19;;;;;;;;;;;;;;;23.41;30.76;101672.34;6093070;23;96381;-86
2021/06/07 00:24:45;;;;;;;;;;;;;;;23.83;30.49;101673.66;6090282;23;96201;-87
2021/06/07 00:27:13;;;;;;;;;;;;;;;23.53;30.29;101670.59;6092106;23;99055;-86
2021/06/07 00:29:43;;;;;;;;;;;;;;;23.55;30.48;101675.88;6092082;23;98382;-86
2021/06/07 00:32:10;;;;;;;;;;;;;;;22.91;31.56;101675.19;6092490;23;96442;-86
2021/06/07 00:34:37;;;;;;;;;;;;;;;23.17;31.16;101674.16;6080930;23;96587;-86
2021/06/07 00:37:03;;;;;;;;;;;;;;;23.10;31.20;101675.59;6076506;23;99035;-88
2021/06/07 00:39:29;;;;;;;;;;;;;;;23.17;31.39;101670.63;6076856;23;97965;-86
2021/06/07 00:41:56;;;;;;;;;;;;;;;22.64;31.82;101673.47;6078257;23;96542;-87
2021/06/07 00:44:24;;;;;;;;;;;;;;;22.94;31.66;101678.53;6075826;23;96748;-88
2021/06/07 00:47:03;;;;;;;;;;;;;;;23.10;31.70;101672.91;6081119;23;100273;-89
2021/06/07 00:52:09;;;;;;;;;;;;;;;23.31;31.18;101668.59;6084127;23;96451;-87
2021/06/07 00:54:36;;;;;;;;;;;;;;;23.04;31.47;101676.88;6080826;23;96647;-88
2021/06/07 00:57:03;;;;;;;;;;;;;;;23.22;31.59;101679.22;6079894;23;98190;-87
2021/06/07 00:59:30;;;;;;;;;;;;;;;23.35;31.08;101675.50;6077250;23;100600;-90
2021/06/07 01:01:56;;;;;;;;;;;;;;;23.21;31.64;101678.38;6080648;23;96692;-88
2021/06/07 01:04:22;;;;;;;;;;;;;;;23.14;31.66;101674.41;6080072;23;96980;-88
2021/06/07 01:06:49;;;;;;;;;;;;;;;23.33;31.29;101672.06;6079755;23;97152;-88
2021/06/07 01:11:56;;;;;;;;;;;;;;;23.23;31.68;101670.16;6084047;23;96552;-90
2021/06/07 01:14:22;;;;;;;;;;;;;;;23.27;31.90;101672.50;6092408;23;95918;-89
2021/06/07 01:16:49;;;;;;;;;;;;;;;23.22;31.72;101674.69;6092701;23;100220;-86
2021/06/07 01:19:17;;;;;;;;;;;;;;;23.36;31.79;101665.59;6093089;23;98185;-87
2021/06/07 01:24:39;;;;;;;;;;;;;;;23.06;32.48;101671.38;6093819;23;97290;-87
2021/06/07 01:27:07;;;;;;;;;;;;;;;23.13;31.96;101666.41;6090192;23;99738;-87
2021/06/07 01:29:34;;;;;;;;;;;;;;;22.84;32.18;101673.94;6092243;23;99582;-88
2021/06/07 01:32:00;;;;;;;;;;;;;;;22.72;32.79;101674.75;6092351;23;96543;-88
2021/06/07 01:34:57;;;;;;;;;;;;;;;22.96;32.42;101667.66;6078941;23;96579;-88
2021/06/07 01:37:25;;;;;;;;;;;;;;;22.74;32.56;101675.56;6077436;23;100169;-88
2021/06/07 01:39:53;;;;;;;;;;;;;;;22.86;32.79;101675.53;6078095;23;99777;-89
2021/06/07 01:42:22;;;;;;;;;;;;;;;22.08;33.76;101671.22;6073233;23;96603;-89
2021/06/07 01:44:48;;;;;;;;;;;;;;;22.55;33.46;101671.47;6073803;23;96575;-89
2021/06/07 01:47:18;;;;;;;;;;;;;;;22.47;33.56;101670.28;6070893;23;98628;-89
2021/06/07 01:49:51;;;;;;;;;;;;;;;22.49;33.64;101668.34;6073034;23;99206;-90
2021/06/07 01:54:57;;;;;;;;;;;;;;;22.61;33.60;101667.47;6073649;23;96784;-87
2021/06/07 01:57:24;;;;;;;;;;;;;;;22.44;33.82;101665.97;6074305;23;98210;-88
2021/06/07 01:59:51;;;;;;;;;;;;;;;22.53;33.63;101662.63;6079062;23;100055;-89
2021/06/07 02:02:17;;;;;;;;;;;;;;;22.56;33.90;101665.09;6081961;23;96680;-87
2021/06/07 02:04:45;;;;;;;;;;;;;;;22.60;33.89;101674.69;6091334;23;97264;-88
2021/06/07 02:07:11;;;;;;;;;;;;;;;22.32;34.35;101672.19;6090759;23;99101;-87
2021/06/07 02:09:38;;;;;;;;;;;;;;;22.53;33.92;101669.84;6092411;23;98484;-88
2021/06/07 02:12:05;;;;;;;;;;;;;;;22.46;34.26;101674.78;6076498;23;96540;-88
2021/06/07 02:14:32;;;;;;;;;;;;;;;21.80;35.42;101672.22;6080322;23;96810;-87
2021/06/07 02:16:58;;;;;;;;;;;;;;;22.02;35.34;101674.34;6072740;23;97023;-88
2021/06/07 02:19:26;;;;;;;;;;;;;;;22.55;34.73;101670.59;6073385;23;99823;-87
2021/06/07 02:24:32;;;;;;;;;;;;;;;22.31;34.85;101673.19;6070749;23;96886;-88
2021/06/07 02:26:58;;;;;;;;;;;;;;;22.17;35.57;101670.59;6070426;23;96792;-88
2021/06/07 02:29:24;;;;;;;;;;;;;;;21.94;35.78;101680.22;6071059;23;97985;-88
2021/06/07 02:31:51;;;;;;;;;;;;;;;22.16;35.56;101677.81;6071969;23;96608;-88
2021/06/07 02:34:18;;;;;;;;;;;;;;;22.12;35.21;101672.75;6070568;23;97031;-88
2021/06/07 02:36:44;;;;;;;;;;;;;;;22.39;35.11;101675.31;6071966;23;98248;-88
2021/06/07 02:39:11;;;;;;;;;;;;;;;22.17;35.41;101676.84;6072052;23;98506;-87
2021/06/07 02:41:38;;;;;;;;;;;;;;;21.98;35.95;101678.22;6073298;23;96597;-87
2021/06/07 02:44:04;;;;;;;;;;;;;;;22.01;36.16;101680.69;6075393;23;96620;-86
2021/06/07 02:46:30;;;;;;;;;;;;;;;21.87;36.25;101684.28;6075961;23;98119;-88
2021/06/07 02:48:58;;;;;;;;;;;;;;;22.11;35.83;101673.72;6076382;23;101137;-86
2021/06/07 02:51:23;;;;;;;;;;;;;;;22.20;36.02;101684.69;6088250;23;96164;-89
2021/06/07 02:53:50;;;;;;;;;;;;;;;21.87;36.04;101677.06;6088076;23;96485;-89
2021/06/07 02:56:16;;;;;;;;;;;;;;;22.13;35.89;101683.38;6090142;23;96746;-89
2021/06/07 02:58:42;;;;;;;;;;;;;;;22.20;35.77;101678.44;6092548;23;99196;-85
2021/06/07 03:01:10;;;;;;;;;;;;;;;22.24;35.96;101680.84;6090692;23;96779;-83
2021/06/07 03:03:38;;;;;;;;;;;;;;;21.74;36.38;101681.56;6090540;23;95897;-86
2021/06/07 03:06:06;;;;;;;;;;;;;;;21.69;36.55;101680.16;6092181;23;98074;-85
2021/06/07 03:08:33;;;;;;;;;;;;;;;21.58;36.91;101675.50;6090506;23;97515;-89
2021/06/07 03:11:00;;;;;;;;;;;;;;;21.58;37.18;101678.19;6091633;23;95871;-86
2021/06/07 03:13:26;;;;;;;;;;;;;;;21.77;36.69;101680.50;6092337;23;96512;-86
2021/06/07 03:15:53;;;;;;;;;;;;;;;22.07;36.21;101683.81;6091817;23;97743;-86
2021/06/07 03:18:19;;;;;;;;;;;;;;;21.60;36.64;101678.94;6091379;23;99440;-86
2021/06/07 03:20:45;;;;;;;;;;;;;;;21.86;36.71;101686.09;6089281;23;96145;-87
2021/06/07 03:23:14;;;;;;;;;;;;;;;21.91;36.58;101682.25;6085763;23;96451;-87
2021/06/07 03:25:41;;;;;;;;;;;;;;;22.13;36.07;101682.53;6083549;23;98349;-88
2021/06/07 03:28:07;;;;;;;;;;;;;;;22.01;36.01;101684.25;6073839;23;101446;-87
2021/06/07 03:30:33;;;;;;;;;;;;;;;22.07;36.10;101689.19;6073022;23;96574;-87
2021/06/07 03:32:59;;;;;;;;;;;;;;;22.04;35.80;101688.56;6073253;23;96748;-87
2021/06/07 03:35:25;;;;;;;;;;;;;;;21.91;36.13;101682.25;6070656;23;99167;-87
2021/06/07 03:38:07;;;;;;;;;;;;;;;21.99;36.21;101691.53;6073597;23;99887;-87
2021/06/07 03:40:36;;;;;;;;;;;;;;;22.06;36.36;101692.84;6076427;23;96668;-88
2021/06/07 03:43:02;;;;;;;;;;;;;;;21.91;36.36;101691.19;6075820;23;96562;-88
2021/06/07 03:45:28;;;;;;;;;;;;;;;22.21;35.90;101691.81;6076463;23;100751;-87
2021/06/07 03:47:54;;;;;;;;;;;;;;;22.24;36.00;101690.75;6078091;23;97883;-88
2021/06/07 03:50:21;;;;;;;;;;;;;;;21.86;36.21;101688.78;6081050;23;96586;-87
2021/06/07 03:52:47;;;;;;;;;;;;;;;22.04;36.26;101688.56;6079459;23;96729;-88
2021/06/07 03:55:14;;;;;;;;;;;;;;;22.53;35.13;101688.69;6078995;23;99946;-87
2021/06/07 03:57:42;;;;;;;;;;;;;;;22.60;35.42;101695.38;6077253;23;97700;-87
2021/06/07 04:00:09;;;;;;;;;;;;;;;22.79;35.46;101693.13;6083982;23;96751;-86
2021/06/07 04:02:36;;;;;;;;;;;;;;;22.99;35.10;101686.28;6082097;23;96722;-87
2021/06/07 04:05:02;;;;;;;;;;;;;;;23.13;35.02;101691.53;6079480;23;99203;-88
2021/06/07 04:07:36;;;;;;;;;;;;;;;23.27;34.48;101686.00;6079111;23;99061;-88
2021/06/07 04:10:02;;;;;;;;;;;;;;;22.77;34.86;101692.38;6079909;23;96693;-89
2021/06/07 04:12:28;;;;;;;;;;;;;;;22.64;35.42;101691.50;6076913;23;96598;-87
2021/06/07 04:14:55;;;;;;;;;;;;;;;22.76;35.18;101687.97;6074635;23;98212;-87
2021/06/07 04:17:21;;;;;;;;;;;;;;;22.75;35.12;101702.41;6075182;23;98213;-86
2021/06/07 04:19:47;;;;;;;;;;;;;;;22.56;35.56;101701.94;6074914;23;96603;-87
2021/06/07 04:22:19;;;;;;;;;;;;;;;22.72;35.06;101707.97;6080174;23;96875;-87
2021/06/07 04:24:46;;;;;;;;;;;;;;;23.20;34.68;101698.22;6075939;23;101553;-87
2021/06/07 04:27:13;;;;;;;;;;;;;;;23.07;34.41;101697.38;6078426;23;99836;-86
2021/06/07 04:29:39;;;;;;;;;;;;;;;23.17;34.41;101703.81;6084980;23;96514;-86
2021/06/07 04:32:09;;;;;;;;;;;;;;;23.04;34.96;101701.16;6090351;23;96873;-86
2021/06/07 04:34:35;;;;;;;;;;;;;;;23.21;34.17;101704.47;6089723;23;96928;-86
2021/06/07 04:37:02;;;;;;;;;;;;;;;23.60;33.63;101706.94;6093079;23;98104;-86
2021/06/07 04:39:28;;;;;;;;;;;;;;;23.60;33.61;101714.16;6085204;23;96394;-86
2021/06/07 04:41:53;;;;;;;;;;;;;;;23.40;33.83;101710.22;6076431;23;96739;-86
2021/06/07 04:44:23;;;;;;;;;;;;;;;23.72;33.42;101706.00;6076811;23;99300;-87
2021/06/07 04:46:49;;;;;;;;;;;;;;;23.84;32.92;101712.31;6077102;23;97961;-86
2021/06/07 04:49:16;;;;;;;;;;;;;;;24.02;33.73;101712.75;6082938;23;97346;-87
2021/06/07 04:51:43;;;;;;;;;;;;;;;23.82;33.27;101706.19;6082388;23;96418;-88
2021/06/07 04:54:09;;;;;;;;;;;;;;;23.52;33.15;101708.47;6082392;23;98206;-88
2021/06/07 04:56:35;;;;;;;;;;;;;;;23.55;33.06;101700.16;6082764;23;99658;-87
2021/06/07 04:59:03;;;;;;;;;;;;;;;24.41;31.77;101703.44;6081996;23;96455;-86
2021/06/07 05:01:30;;;;;;;;;;;;;;;23.29;33.56;101705.63;6081598;23;96504;-88
2021/06/07 05:03:56;;;;;;;;;;;;;;;23.58;33.63;101702.63;6082717;23;99226;-88
2021/06/07 05:06:23;;;;;;;;;;;;;;;24.14;32.75;101704.56;6079913;23;99412;-87
2021/06/07 05:08:50;;;;;;;;;;;;;;;24.27;32.22;101703.66;6082290;23;96431;-88
2021/06/07 05:11:16;;;;;;;;;;;;;;;24.54;31.92;101704.19;6080925;23;96564;-88
2021/06/07 05:13:45;;;;;;;;;;;;;;;24.45;32.16;101702.22;6077912;23;99877;-86
2021/06/07 05:16:11;;;;;;;;;;;;;;;23.84;32.43;101705.06;6081036;23;99237;-89
2021/06/07 05:21:19;;;;;;;;;;;;;;;24.57;31.22;101701.22;6085858;23;96098;-88
2021/06/07 05:26:27;;;;;;;;;;;;;;;23.49;33.12;101719.50;6091310;23;98260;-88
2021/06/07 05:28:53;;;;;;;;;;;;;;;23.80;31.89;101713.53;6092765;23;96549;-88
2021/06/07 05:31:19;;;;;;;;;;;;;;;23.72;32.23;101719.50;6092893;23;96208;-86
2021/06/07 05:33:45;;;;;;;;;;;;;;;24.17;31.48;101712.44;6091517;23;99174;-88
2021/06/07 05:36:11;;;;;;;;;;;;;;;24.75;30.79;101721.38;6092351;23;99788;-86
2021/06/07 05:38:39;;;;;;;;;;;;;;;24.74;31.29;101717.00;6092237;23;95887;-84
2021/06/07 05:41:06;;;;;;;;;;;;;;;24.42;31.96;101722.22;6092395;23;96385;-84
2021/06/07 05:43:32;;;;;;;;;;;;;;;24.26;31.44;101726.22;6082857;23;98040;-86
2021/06/07 05:45:59;;;;;;;;;;;;;;;25.04;30.60;101723.63;6078032;23;98698;-86
2021/06/07 05:48:24;;;;;;;;;;;;;;;25.13;30.18;101728.31;6085133;23;96678;-88
2021/06/07 05:53:46;;;;;;;;;;;;;;;25.63;29.52;101729.59;6090309;23;96260;-86
2021/06/07 05:56:13;;;;;;;;;;;;;;;25.73;28.86;101736.78;6092228;23;98111;-88
2021/06/07 05:58:39;;;;;;;;;;;;;;;25.28;29.89;101735.16;6092279;23;96285;-88
2021/06/07 06:01:05;;;;;;;;;;;;;;;25.54;29.32;101741.13;6091653;23;96638;-86
2021/06/07 06:03:31;;;;;;;;;;;;;;;25.57;29.59;101739.06;6091340;23;96664;-87
2021/06/07 06:06:15;;;;;;;;;;;;;;;25.89;29.05;101733.66;6091924;23;96273;-83
2021/06/07 06:14:07;;;;;;;;;;;;;;;25.77;29.32;101740.97;6092187;23;98986;-86
2021/06/07 06:16:33;;;;;;;;;;;;;;;25.97;29.11;101742.00;6092494;23;96972;-88
2021/06/07 06:19:01;;;;;;;;;;;;;;;24.51;30.87;101740.41;6090236;23;96545;-85
2021/06/07 06:21:28;;;;;;;;;;;;;;;24.21;31.90;101740.97;6094269;23;96042;-85
2021/06/07 06:23:58;;;;;;;;;;;;;;;24.25;32.08;101738.88;6091552;23;99209;-88
2021/06/07 06:26:27;;;;;;;;;;;;;;;25.24;30.28;101737.28;6089314;23;98022;-86
2021/06/07 06:28:54;;;;;;;;;;;;;;;25.30;30.21;101735.91;6089429;23;96165;-86
2021/06/07 06:31:20;;;;;;;;;;;;;;;25.89;29.44;101736.38;6091027;23;96354;-86
2021/06/07 06:33:47;;;;;;;;;;;;;;;25.99;29.02;101736.47;6091136;23;99113;-86
2021/06/07 06:36:28;;;;;;;;;;;;;;;26.87;27.76;101732.34;6090442;23;96570;-85
2021/06/07 06:38:54;;;;;;;;;;;;;;;26.71;27.94;101737.44;6088048;23;95988;-85
2021/06/07 06:41:20;;;;;;;;;;;;;;;27.58;26.74;101735.06;6091956;23;96415;-85
2021/06/07 06:43:52;;;;;;;;;;;;;;;25.98;28.62;101729.34;6089680;23;98699;-86
2021/06/07 06:46:19;;;;;;;;;;;;;;;26.54;28.43;101740.72;6080376;23;99419;-86
2021/06/07 06:48:51;;;;;;;;;;;;;;;26.94;27.66;101738.13;6081332;23;96645;-83
2021/06/07 06:51:19;;;;;;;;;;;;;;;26.47;28.22;101739.56;6080102;23;96780;-85
2021/06/07 06:56:40;;;;;;;;;;;;;;;26.31;28.13;101744.59;6070542;23;99833;-86
2021/06/07 06:59:11;;;;;;;;;;;;;;;26.64;27.80;101746.22;6089607;23;97019;-87
2021/06/07 07:02:16;;;;;;;;;;;;;;;27.13;27.03;101749.03;6092800;23;95950;-87
2021/06/07 07:10:14;;;;;;;;;;;;;;;26.95;26.84;101735.28;6050695;23;99126;-87
2021/06/07 07:15:29;;;;;;;;;;;;;;;26.40;27.70;101749.19;6081204;23;96595;-89
2021/06/07 07:17:55;;;;;;;;;;;;;;;26.58;27.54;101748.47;6076775;23;98019;-86
2021/06/07 07:20:22;;;;;;;;;;;;;;;25.85;28.23;101743.06;6080140;23;96925;-87
2021/06/07 07:22:49;;;;;;;;;;;;;;;26.18;27.53;101752.88;6082743;23;96580;-85
2021/06/07 07:25:15;;;;;;;;;;;;;;;26.93;26.26;101748.13;6074446;23;99269;-86
2021/06/07 07:27:41;;;;;;;;;;;;;;;27.55;25.90;101740.78;6081952;23;98872;-87
2021/06/07 07:30:09;;;;;;;;;;;;;;;27.77;25.81;101743.22;6085061;23;96545;-85
2021/06/07 07:32:38;;;;;;;;;;;;;;;27.88;25.72;101744.97;6084376;23;96565;-87
2021/06/07 07:35:05;;;;;;;;;;;;;;;27.53;26.31;101743.63;6082411;23;100051;-86
2021/06/07 07:37:38;;;;;;;;;;;;;;;27.02;26.60;101753.72;6089542;23;97965;-89
2021/06/07 07:40:30;;;;;;;;;;;;;;;26.45;26.67;101753.22;6093160;23;96007;-85
2021/06/07 07:46:00;;;;;;;;;;;;;;;28.01;25.13;101746.38;6091771;23;98537;-88
2021/06/07 07:51:15;;;;;;;;;;;;;;;27.97;24.62;101750.38;6086176;23;96482;-90
2021/06/07 07:56:51;;;;;;;;;;;;;;;27.18;25.91;101757.63;6074924;23;97729;-90
2021/06/07 07:59:18;;;;;;;;;;;;;;;26.90;26.22;101747.53;6090711;23;98964;-90
2021/06/07 08:01:54;;;;;;;;;;;;;;;28.05;24.93;101747.81;6091721;23;96287;-89
2021/06/07 08:07:43;;;;;;;;;;;;;;;28.36;24.76;101745.81;6092708;23;97118;-89
2021/06/07 08:13:16;;;;;;;;;;;;;;;27.66;25.95;101740.66;6090259;23;96435;-87
2021/06/07 08:18:24;;;;;;;;;;;;;;;28.61;24.94;101738.91;6061355;23;98544;-84
2021/06/07 08:20:54;;;;;;;;;;;;;;;27.82;25.68;101749.09;6062545;23;98714;-88
2021/06/07 08:23:21;;;;;;;;;;;;;;;27.92;25.76;101744.53;6056570;23;96511;-88
2021/06/07 08:25:47;;;;;;;;;;;;;;;28.40;25.03;101741.81;6051845;23;97102;-89
2021/06/07 08:28:15;;;;;;;;;;;;;;;28.54;24.83;101746.78;6050344;23;98370;-88
2021/06/07 08:30:45;;;;;;;;;;;;;;;28.28;25.41;101739.41;6051403;23;98946;-90
2021/06/07 08:33:28;;;;;;;;;;;;;;;29.08;24.74;101739.72;6055112;23;96607;-88
2021/06/07 08:38:37;;;;;;;;;;;;;;;29.39;23.91;101732.16;6045880;23;99875;-89
2021/06/07 08:41:03;;;;;;;;;;;;;;;29.17;24.00;101727.97;6051309;23;100581;-90
2021/06/07 08:43:30;;;;;;;;;;;;;;;28.35;24.84;101732.38;6051187;23;96600;-86
2021/06/07 08:46:02;;;;;;;;;;;;;;;28.66;24.53;101730.28;6050210;23;96521;-90
2021/06/07 08:48:29;;;;;;;;;;;;;;;29.03;24.24;101735.75;6050661;23;101310;-89
2021/06/07 08:51:00;;;;;;;;;;;;;;;29.47;24.30;101732.25;6059164;23;99879;-88
2021/06/07 08:53:34;;;;;;;;;;;;;;;29.26;24.34;101731.66;6057627;23;97070;-87
2021/06/07 08:56:07;;;;;;;;;;;;;;;28.31;25.71;101737.22;6055700;23;96657;-88
2021/06/07 09:01:34;;;;;;;;;;;;;;;28.73;25.17;101729.56;6054733;23;98358;-87
2021/06/07 09:04:08;;;;;;;;;;;;;;;28.95;24.14;101724.78;6053699;23;96737;-85
2021/06/07 09:06:39;;;;;;;;;;;;;;;28.67;24.59;101732.00;6053759;23;96884;-87
2021/06/07 09:09:07;;;;;;;;;;;;;;;29.13;24.27;101731.13;6055278;23;99845;-88
2021/06/07 09:11:43;;;;;;;;;;;;;;;28.68;25.05;101729.16;6055821;23;99437;-88
2021/06/07 09:14:22;;;;;;;;;;;;;;;28.90;24.96;101730.66;6053820;23;96574;-87
2021/06/07 09:16:56;;;;;;;;;;;;;;;29.25;24.10;101738.09;6060345;23;95986;-88
2021/06/07 09:22:20;;;;;;;;;;;;;;;29.23;23.83;101731.94;6052361;23;100319;-91
2021/06/07 09:25:02;;;;;;;;;;;;;;;29.43;23.56;101728.13;6046809;23;96528;-86
2021/06/07 09:27:29;;;;;;;;;;;;;;;29.66;22.90;101736.72;6053455;23;96621;-86
2021/06/07 09:29:55;;;;;;;;;;;;;;;29.34;23.22;101734.50;6049281;23;99403;-88
2021/06/07 09:32:47;;;;;;;;;;;;;;;29.28;23.66;101738.63;6057038;23;100252;-88
2021/06/07 09:40:46;;;;;;;;;;;;;;;29.52;23.20;101731.81;6051792;23;96997;-90
2021/06/07 09:43:16;;;;;;;;;;;;;;;29.59;23.06;101731.03;6052354;23;98953;-87
2021/06/07 09:49:08;;;;;;;;;;;;;;;29.25;23.10;101728.06;5870187;23;97579;-88
2021/06/07 09:51:49;;;;;;;;;;;;;;;29.46;22.08;101730.56;5905524;23;100619;-88
2021/06/07 09:54:17;;;;;;;;;;;;;;;29.37;22.59;101726.00;5907165;23;96723;-88
2021/06/07 09:56:50;;;;;;;;;;;;;;;29.18;22.96;101732.41;6040916;23;97783;-89
2021/06/07 10:01:52;;;;;;;;;;;;;;;28.89;22.50;101732.53;6056514;23;97093;-89
2021/06/07 10:07:19;;;;;;;;;;;;;;;28.00;23.36;101730.22;5999364;23;96551;-90
2021/06/07 10:10:10;;;;;;;;;;;;;;;28.84;22.31;101718.53;6016760;23;96754;-88
2021/06/07 10:12:39;;;;;;;;;;;;;;;29.09;21.35;101727.84;6046417;23;98844;-85
2021/06/07 10:15:06;;;;;;;;;;;;;;;28.83;21.69;101724.97;6057571;23;99592;-86
2021/06/07 10:17:32;;;;;;;;;;;;;;;29.24;20.85;101717.31;6055265;23;96493;-87
2021/06/07 10:22:43;;;;;;;;;;;;;;;27.98;22.10;101714.06;6013376;23;97270;-90
2021/06/07 10:25:13;;;;;;;;;;;;;;;28.57;21.52;101715.72;6061705;23;99690;-88
2021/06/07 10:27:40;;;;;;;;;;;;;;;28.81;21.00;101713.41;6052584;23;96632;-87
2021/06/07 10:30:28;;;;;;;;;;;;;;;28.96;21.30;101718.31;6047979;23;97101;-84
2021/06/07 10:32:54;;;;;;;;;;;;;;;28.68;21.20;101707.41;6044058;23;99766;-87
2021/06/07 10:35:30;;;;;;;;;;;;;;;29.28;20.83;101699.66;6055686;23;99421;-87
2021/06/07 10:38:04;;;;;;;;;;;;;;;28.52;22.50;101696.28;6050119;23;96671;-87
2021/06/07 10:40:54;;;;;;;;;;;;;;;29.02;22.39;101696.81;6048509;23;96791;-85
2021/06/07 10:46:25;;;;;;;;;;;;;;;29.39;21.96;101685.03;6024853;23;97041;-83
2021/06/07 10:48:53;;;;;;;;;;;;;;;29.02;21.28;101699.53;6043932;23;96705;-84
2021/06/07 10:51:27;;;;;;;;;;;;;;;28.48;20.28;101709.31;6029208;23;96818;-88
2021/06/07 10:53:54;;;;;;;;;;;;;;;28.13;21.03;101709.91;6056884;23;98434;-91
2021/06/07 10:56:27;;;;;;;;;;;;;;;28.93;20.59;101701.31;6060106;23;99435;-90
2021/06/07 10:58:56;;;;;;;;;;;;;;;29.30;20.73;101697.66;6055014;23;96568;-89
2021/06/07 11:01:40;;;;;;;;;;;;;;;29.61;20.70;101700.91;6052358;23;96886;-85
2021/06/07 11:04:06;;;;;;;;;;;;;;;29.19;21.88;101698.72;6038255;23;100753;-88
2021/06/07 11:06:34;;;;;;;;;;;;;;;28.73;22.43;101691.47;6046260;23;98858;-86
2021/06/07 11:09:02;;;;;;;;;;;;;;;29.08;21.99;101687.22;6020510;23;96729;-87
2021/06/07 11:11:43;;;;;;;;;;;;;;;29.35;22.00;101687.19;6052696;23;96766;-87
2021/06/07 11:14:23;;;;;;;;;;;;;;;28.63;22.16;101690.66;6057015;23;98306;-87
2021/06/07 11:16:49;;;;;;;;;;;;;;;28.34;22.20;101684.47;6060979;23;98796;-86
2021/06/07 11:19:18;;;;;;;;;;;;;;;28.86;21.92;101674.84;6081038;23;96655;-87
2021/06/07 11:21:46;;;;;;;;;;;;;;;28.80;21.94;101679.03;6083606;23;96716;-89
2021/06/07 11:27:09;;;;;;;;;;;;;;;29.56;20.80;101676.88;6078113;23;98385;-89
2021/06/07 11:29:51;;;;;;;;;;;;;;;29.09;21.69;101684.31;6093239;23;96415;-88
2021/06/07 11:32:43;;;;;;;;;;;;;;;28.93;21.60;101673.25;6093095;23;95899;-87
2021/06/07 11:35:29;;;;;;;;;;;;;;;29.10;21.45;101666.13;6093163;23;98799;-90
2021/06/07 11:41:01;;;;;;;;;;;;;;;29.64;21.32;101667.94;6090668;23;97389;-90
2021/06/07 11:43:55;;;;;;;;;;;;;;;29.45;21.25;101663.50;6090669;23;97185;-90
2021/06/07 11:46:41;;;;;;;;;;;;;;;29.06;21.92;101664.72;6088024;23;98725;-91
2021/06/07 11:49:08;;;;;;;;;;;;;;;29.45;22.24;101657.19;6083580;23;99684;-92
2021/06/07 11:51:37;;;;;;;;;;;;;;;30.03;21.21;101658.41;6089569;23;96616;-91
2021/06/07 11:54:33;;;;;;;;;;;;;;;30.02;20.69;101664.03;6088269;23;96157;-91
2021/06/07 11:57:00;;;;;;;;;;;;;;;29.74;20.95;101655.06;6082647;23;98890;-92
2021/06/07 11:59:29;;;;;;;;;;;;;;;29.86;21.26;101667.47;6088058;23;98186;-89
2021/06/07 12:04:40;;;;;;;;;;;;;;;29.86;21.48;101664.72;6086455;23;96700;-92
2021/06/07 12:07:09;;;;;;;;;;;;;;;30.22;21.52;101668.25;6083621;23;98767;-92
2021/06/07 12:10:08;;;;;;;;;;;;;;;30.49;20.11;101657.22;6083691;23;99632;-90
2021/06/07 12:12:38;;;;;;;;;;;;;;;29.99;20.67;101661.63;6088565;23;96199;-91
2021/06/07 12:17:43;;;;;;;;;;;;;;;29.47;20.68;101653.28;6088022;22;101021;-89
2021/06/07 12:20:14;;;;;;;;;;;;;;;29.51;20.21;101656.56;6122618;22;99251;-93
2021/06/07 12:22:44;;;;;;;;;;;;;;;30.00;19.54;101653.28;6123142;22;95901;-88
2021/06/07 12:28:23;;;;;;;;;;;;;;;30.69;19.76;101641.47;6120199;22;98859;-87
2021/06/07 12:40:01;;;;;;;;;;;;;;;30.24;20.22;101643.56;5167149;22;96089;-87
2021/06/07 12:45:28;;;;;;;;;;;;;;;30.08;19.61;101641.59;5341322;22;100807;-89
2021/06/07 12:50:25;;;;;;;;;;;;;;;30.81;19.72;101631.13;5111848;27;96898;-88
2021/06/07 12:55:57;;;;;;;;;;;;;;;30.96;18.65;101629.47;5094960;27;100013;-87
2021/06/07 12:58:46;;;;;;;;;;;;;;;31.33;18.68;101620.03;5097628;27;96763;-87
2021/06/07 13:01:16;;;;;;;;;;;;;;;30.70;19.16;101626.81;5105998;27;96545;-90
2021/06/07 13:03:54;;;;;;;;;;;;;;;31.37;19.20;101632.34;5105135;27;97043;-90
2021/06/07 13:06:52;;;;;;;;;;;;;;;31.14;19.25;101626.66;5107323;27;97689;-90
2021/06/07 13:12:18;;;;;;;;;;;;;;;31.84;18.10;101627.06;5139972;22;98870;-90
2021/06/07 13:14:58;;;;;;;;;;;;;;;31.50;18.65;101627.25;5075133;27;98250;-90
2021/06/07 13:17:26;;;;;;;;;;;;;;;32.01;18.52;101621.44;5068669;27;97177;-85
2021/06/07 13:22:57;;;;;;;;;;;;;;;32.58;17.88;101613.13;5078217;27;96845;-89
2021/06/07 13:25:29;;;;;;;;;;;;;;;33.74;17.30;101618.66;5084347;27;97084;-88
2021/06/07 13:36:51;;;;;;;;;;;;;;;34.49;16.20;101615.84;5104992;27;96807;-90
2021/06/07 13:44:52;;;;;;;;;;;;;;;37.17;14.09;101604.69;5103768;27;96923;-89
2021/06/07 13:47:24;;;;;;;;;;;;;;;37.67;15.38;101599.72;5111851;27;96578;-90
2021/06/07 13:53:30;;;;;;;;;;;;;;;36.51;13.12;101606.28;5093104;27;98884;-87
2021/06/07 13:56:15;;;;;;;;;;;;;;;37.90;12.78;101609.25;5094880;27;96844;-85
2021/06/07 14:04:52;;;;;;;;;;;;;;;38.81;12.04;101587.19;5094944;27;96520;-88
2021/06/07 14:07:19;;;;;;;;;;;;;;;39.67;11.52;101598.59;5103709;27;96436;-88
2021/06/07 14:15:33;;;;;;;;;;;;;;;42.05;9.85;101596.41;5093051;27;96334;-90
2021/06/07 14:18:00;;;;;;;;;;;;;;;40.65;11.15;101590.41;5095656;27;96656;-89
2021/06/07 14:26:11;;;;;;;;;;;;;;;44.21;9.33;101586.13;5094778;27;97376;-89
2021/06/07 14:28:38;;;;;;;;;;;;;;;46.95;7.20;101590.25;5079735;27;97592;-89
2021/06/07 14:31:08;;;;;;;;;;;;;;;47.22;7.04;101581.63;5095512;27;96202;-89
2021/06/07 14:33:51;;;;;;;;;;;;;;;47.03;6.88;101586.06;5090658;27;99724;-87
2021/06/07 14:36:20;;;;;;;;;;;;;;;47.06;6.69;101579.94;5063470;27;98810;-89
2021/06/07 14:38:48;;;;;;;;;;;;;;;49.20;5.86;101576.34;5068963;27;96846;-89
2021/06/07 14:44:42;;;;;;;;;;;;;;;49.86;5.19;101578.59;5161510;22;97216;-90
2021/06/07 14:50:11;;;;;;;;;;;;;;;49.01;6.01;101564.97;5062952;27;96717;-88
2021/06/07 14:52:39;;;;;;;;;;;;;;;47.10;6.64;101572.66;5076354;27;97308;-89
2021/06/07 14:55:09;;;;;;;;;;;;;;;48.53;6.14;101565.78;5078010;27;100114;-88
2021/06/07 14:57:35;;;;;;;;;;;;;;;48.28;6.25;101561.94;5079617;27;99647;-91
2021/06/07 15:00:01;;;;;;;;;;;;;;;48.34;6.35;101568.34;5082511;27;96826;-90
2021/06/07 15:02:27;;;;;;;;;;;;;;;48.98;6.32;101565.53;5077104;22;96746;-87
2021/06/07 15:04:54;;;;;;;;;;;;;;;50.40;5.32;101567.03;5037698;28;101030;-87
2021/06/07 15:07:22;;;;;;;;;;;;;;;51.98;4.34;101559.75;5039621;27;97125;-86
2021/06/07 15:09:48;;;;;;;;;;;;;;;51.70;4.26;101553.22;5039437;27;96699;-88
2021/06/07 15:12:15;;;;;;;;;;;;;;;44.07;8.30;101555.03;5041103;27;96563;-88
2021/06/07 15:14:41;;;;;;;;;;;;;;;38.94;11.42;101539.34;5032963;28;98408;-88
2021/06/07 15:17:08;;;;;;;;;;;;;;;37.07;12.54;101533.47;5006188;28;99075;-87
2021/06/07 15:19:34;;;;;;;;;;;;;;;36.48;13.21;101532.41;5039557;28;96681;-87
2021/06/07 15:22:00;;;;;;;;;;;;;;;35.12;14.73;101535.53;5034328;27;96869;-86
2021/06/07 15:24:47;;;;;;;;;;;;;;;34.44;15.14;101523.13;5037621;27;98592;-89
2021/06/07 15:27:16;;;;;;;;;;;;;;;34.00;15.70;101534.09;5025011;28;99486;-87
2021/06/07 15:29:43;;;;;;;;;;;;;;;33.48;16.64;101534.91;5030675;28;96726;-88
2021/06/07 15:32:09;;;;;;;;;;;;;;;33.59;18.44;101533.63;5024218;28;96849;-88